FBSK/GBE METAR and TAF weather

Enter ICAO airport designator
Station Type Date Time Source
FBSK METAR 2022/11/30 21:00 UTC NOAA

FBSK 302100Z 27003KT CAVOK 20/18 Q1018 NOSIG


Station Type Date Time Source
FBSK Decoded METAR 2022/11/30 21:00 UTC NOAA

Seretse Khama International Airport, Botswana (FBSK) 24-13S 025-55E 1005M
Nov 30, 2022 - 04:00 PM EST / 2022.11.30 2100 UTC
Wind: from the W (270 degrees) at 3 MPH (3 KT):0
Visibility: greater than 7 mile(s):0
Temperature: 68 F (20 C)
Dew Point: 64 F (18 C)
Relative Humidity: 88%
Pressure (altimeter): 30.06 in. Hg (1018 hPa)
ob: FBSK 302100Z 27003KT CAVOK 20/18 Q1018 NOSIG
cycle: 21

Station Type Date Time Source
FBSK TAF 2022/11/30 18:21 UTC NOAA

TAF FBSK 301600Z 3018/0124 08006KT CAVOK

Example: see airport list